sensor_id;sensor_type;location;lat;lon;timestamp;P1;durP1;ratioP1;P2;durP2;ratioP2
21010;SDS011;10663;42.714;23.274;2023-09-19T13:08:20;6.75;;;5.78;;
21010;SDS011;10663;42.714;23.274;2023-09-19T13:10:02;8.40;;;5.75;;
21010;SDS011;10663;42.714;23.274;2023-09-19T13:11:39;5.95;;;5.35;;
21010;SDS011;10663;42.714;23.274;2023-09-19T13:13:22;5.72;;;5.13;;
21010;SDS011;10663;42.714;23.274;2023-09-19T13:15:08;6.18;;;5.57;;
21010;SDS011;10663;42.714;23.274;2023-09-19T13:18:26;6.60;;;5.75;;
21010;SDS011;10663;42.714;23.274;2023-09-19T13:19:57;8.27;;;5.93;;
21010;SDS011;10663;42.714;23.274;2023-09-19T13:23:26;6.72;;;5.70;;
21010;SDS011;10663;42.714;23.274;2023-09-19T13:24:57;6.93;;;5.80;;
21010;SDS011;10663;42.714;23.274;2023-09-19T13:26:29;7.00;;;5.70;;
21010;SDS011;10663;42.714;23.274;2023-09-19T13:28:00;7.13;;;5.90;;
21010;SDS011;10663;42.714;23.274;2023-09-19T13:29:34;7.18;;;5.97;;
21010;SDS011;10663;42.714;23.274;2023-09-19T13:31:05;7.20;;;5.65;;
21010;SDS011;10663;42.714;23.274;2023-09-19T13:32:36;6.32;;;5.45;;
21010;SDS011;10663;42.714;23.274;2023-09-19T13:34:09;6.30;;;5.70;;
21010;SDS011;10663;42.714;23.274;2023-09-19T13:35:40;7.32;;;5.63;;
21010;SDS011;10663;42.714;23.274;2023-09-19T13:37:11;6.00;;;5.40;;
21010;SDS011;10663;42.714;23.274;2023-09-19T13:38:43;6.93;;;5.80;;
21010;SDS011;10663;42.714;23.274;2023-09-19T13:40:15;6.13;;;5.53;;
21010;SDS011;10663;42.714;23.274;2023-09-19T13:41:47;6.18;;;5.55;;
21010;SDS011;10663;42.714;23.274;2023-09-19T13:43:18;6.28;;;5.65;;
21010;SDS011;10663;42.714;23.274;2023-09-19T13:44:52;6.07;;;5.40;;
21010;SDS011;10663;42.714;23.274;2023-09-19T13:46:24;7.55;;;5.80;;
21010;SDS011;10663;42.714;23.274;2023-09-19T13:47:56;6.60;;;5.72;;
21010;SDS011;10663;42.714;23.274;2023-09-19T13:49:30;8.00;;;5.60;;
21010;SDS011;10663;42.714;23.274;2023-09-19T13:51:02;7.35;;;6.15;;
21010;SDS011;10663;42.714;23.274;2023-09-19T13:52:34;6.50;;;5.80;;
21010;SDS011;10663;42.714;23.274;2023-09-19T13:54:05;6.72;;;5.50;;
21010;SDS011;10663;42.714;23.274;2023-09-19T13:55:36;7.37;;;5.60;;
21010;SDS011;10663;42.714;23.274;2023-09-19T13:57:08;6.40;;;5.57;;
21010;SDS011;10663;42.714;23.274;2023-09-19T13:58:40;7.43;;;5.78;;
21010;SDS011;10663;42.714;23.274;2023-09-19T14:00:12;6.65;;;5.82;;
21010;SDS011;10663;42.714;23.274;2023-09-19T14:01:46;6.63;;;5.95;;
21010;SDS011;10663;42.714;23.274;2023-09-19T14:03:17;7.32;;;6.40;;
21010;SDS011;10663;42.714;23.274;2023-09-19T14:04:48;6.18;;;5.55;;
21010;SDS011;10663;42.714;23.274;2023-09-19T14:06:19;6.40;;;5.80;;
21010;SDS011;10663;42.714;23.274;2023-09-19T14:07:50;8.35;;;6.00;;
21010;SDS011;10663;42.714;23.274;2023-09-19T14:09:22;7.63;;;5.78;;
21010;SDS011;10663;42.714;23.274;2023-09-19T14:10:53;6.57;;;5.82;;
21010;SDS011;10663;42.714;23.274;2023-09-19T14:12:24;6.60;;;5.97;;
21010;SDS011;10663;42.714;23.274;2023-09-19T14:13:55;9.37;;;6.27;;
21010;SDS011;10663;42.714;23.274;2023-09-19T14:15:26;8.32;;;6.38;;
21010;SDS011;10663;42.714;23.274;2023-09-19T14:17:00;7.90;;;5.90;;
21010;SDS011;10663;42.714;23.274;2023-09-19T14:18:32;7.75;;;6.07;;
21010;SDS011;10663;42.714;23.274;2023-09-19T14:20:03;7.95;;;6.10;;
21010;SDS011;10663;42.714;23.274;2023-09-19T14:21:34;6.80;;;5.82;;
21010;SDS011;10663;42.714;23.274;2023-09-19T14:23:07;7.75;;;6.10;;
21010;SDS011;10663;42.714;23.274;2023-09-19T14:24:38;7.20;;;6.50;;
21010;SDS011;10663;42.714;23.274;2023-09-19T14:26:09;6.63;;;5.97;;
21010;SDS011;10663;42.714;23.274;2023-09-19T14:27:40;7.90;;;5.80;;
21010;SDS011;10663;42.714;23.274;2023-09-19T14:29:11;6.70;;;5.97;;
21010;SDS011;10663;42.714;23.274;2023-09-19T14:30:43;6.65;;;5.95;;
21010;SDS011;10663;42.714;23.274;2023-09-19T14:32:14;7.43;;;6.30;;
21010;SDS011;10663;42.714;23.274;2023-09-19T14:33:45;7.10;;;5.95;;
21010;SDS011;10663;42.714;23.274;2023-09-19T14:35:23;8.23;;;6.38;;
21010;SDS011;10663;42.714;23.274;2023-09-19T14:36:54;7.57;;;6.05;;
21010;SDS011;10663;42.714;23.274;2023-09-19T14:38:25;8.93;;;6.30;;
21010;SDS011;10663;42.714;23.274;2023-09-19T14:39:56;7.97;;;6.18;;
21010;SDS011;10663;42.714;23.274;2023-09-19T14:41:27;6.95;;;6.10;;
21010;SDS011;10663;42.714;23.274;2023-09-19T14:42:58;6.68;;;5.88;;
21010;SDS011;10663;42.714;23.274;2023-09-19T14:44:29;6.90;;;6.20;;
21010;SDS011;10663;42.714;23.274;2023-09-19T14:46:03;6.57;;;5.88;;
21010;SDS011;10663;42.714;23.274;2023-09-19T14:47:35;7.45;;;6.32;;
21010;SDS011;10663;42.714;23.274;2023-09-19T14:49:05;7.47;;;6.37;;
21010;SDS011;10663;42.714;23.274;2023-09-19T14:50:37;6.97;;;6.22;;
21010;SDS011;10663;42.714;23.274;2023-09-19T14:52:08;7.30;;;6.35;;
21010;SDS011;10663;42.714;23.274;2023-09-19T14:53:40;6.70;;;6.00;;
21010;SDS011;10663;42.714;23.274;2023-09-19T14:55:11;9.80;;;6.78;;
21010;SDS011;10663;42.714;23.274;2023-09-19T14:56:45;7.80;;;6.32;;
21010;SDS011;10663;42.714;23.274;2023-09-19T14:58:24;7.78;;;6.20;;
21010;SDS011;10663;42.714;23.274;2023-09-19T14:59:56;7.88;;;6.43;;
21010;SDS011;10663;42.714;23.274;2023-09-19T15:01:28;8.13;;;6.25;;
21010;SDS011;10663;42.714;23.274;2023-09-19T15:02:59;7.60;;;6.80;;
21010;SDS011;10663;42.714;23.274;2023-09-19T15:04:30;9.00;;;6.68;;
21010;SDS011;10663;42.714;23.274;2023-09-19T15:06:04;7.43;;;6.50;;
21010;SDS011;10663;42.714;23.274;2023-09-19T15:07:36;8.20;;;6.30;;
21010;SDS011;10663;42.714;23.274;2023-09-19T15:09:08;7.93;;;6.97;;
21010;SDS011;10663;42.714;23.274;2023-09-19T15:10:40;9.57;;;6.88;;
21010;SDS011;10663;42.714;23.274;2023-09-19T15:12:12;9.73;;;6.53;;
21010;SDS011;10663;42.714;23.274;2023-09-19T15:13:44;6.95;;;6.25;;
21010;SDS011;10663;42.714;23.274;2023-09-19T20:50:35;17.37;;;11.67;;
21010;SDS011;10663;42.714;23.274;2023-09-19T20:52:07;13.63;;;10.80;;
21010;SDS011;10663;42.714;23.274;2023-09-19T20:53:39;19.60;;;11.97;;
21010;SDS011;10663;42.714;23.274;2023-09-19T20:55:11;15.98;;;11.77;;
21010;SDS011;10663;42.714;23.274;2023-09-19T20:56:42;18.35;;;12.13;;
21010;SDS011;10663;42.714;23.274;2023-09-19T20:58:12;23.65;;;13.60;;
21010;SDS011;10663;42.714;23.274;2023-09-19T20:59:43;17.83;;;11.63;;
21010;SDS011;10663;42.714;23.274;2023-09-19T21:01:14;16.77;;;11.10;;
21010;SDS011;10663;42.714;23.274;2023-09-19T21:02:46;15.27;;;10.35;;
21010;SDS011;10663;42.714;23.274;2023-09-19T21:04:19;17.05;;;11.00;;
21010;SDS011;10663;42.714;23.274;2023-09-19T21:05:58;13.30;;;10.50;;
21010;SDS011;10663;42.714;23.274;2023-09-19T21:07:33;14.80;;;10.55;;
21010;SDS011;10663;42.714;23.274;2023-09-19T21:09:05;14.45;;;10.55;;
21010;SDS011;10663;42.714;23.274;2023-09-19T21:10:38;16.45;;;10.77;;
21010;SDS011;10663;42.714;23.274;2023-09-19T21:12:09;14.48;;;10.73;;
21010;SDS011;10663;42.714;23.274;2023-09-19T21:13:41;14.50;;;11.10;;
21010;SDS011;10663;42.714;23.274;2023-09-19T21:15:12;13.43;;;10.45;;
21010;SDS011;10663;42.714;23.274;2023-09-19T21:16:43;14.17;;;9.83;;
21010;SDS011;10663;42.714;23.274;2023-09-19T21:18:14;12.60;;;10.05;;
21010;SDS011;10663;42.714;23.274;2023-09-19T21:19:45;12.85;;;9.60;;
21010;SDS011;10663;42.714;23.274;2023-09-19T21:21:15;11.23;;;9.55;;
21010;SDS011;10663;42.714;23.274;2023-09-19T21:22:46;12.40;;;9.70;;
21010;SDS011;10663;42.714;23.274;2023-09-19T21:24:17;16.35;;;10.02;;
21010;SDS011;10663;42.714;23.274;2023-09-19T21:25:55;13.02;;;9.60;;
21010;SDS011;10663;42.714;23.274;2023-09-19T21:27:25;14.10;;;10.05;;
21010;SDS011;10663;42.714;23.274;2023-09-19T21:28:56;14.38;;;9.68;;
21010;SDS011;10663;42.714;23.274;2023-09-19T21:30:28;14.00;;;9.23;;
21010;SDS011;10663;42.714;23.274;2023-09-19T21:31:59;15.10;;;10.10;;
21010;SDS011;10663;42.714;23.274;2023-09-19T21:33:30;16.52;;;10.32;;
21010;SDS011;10663;42.714;23.274;2023-09-19T21:35:02;13.63;;;10.23;;
21010;SDS011;10663;42.714;23.274;2023-09-19T21:36:35;12.90;;;9.20;;
21010;SDS011;10663;42.714;23.274;2023-09-19T21:38:06;12.25;;;9.43;;
21010;SDS011;10663;42.714;23.274;2023-09-19T21:39:38;13.57;;;10.25;;
21010;SDS011;10663;42.714;23.274;2023-09-19T21:41:10;13.02;;;9.35;;
21010;SDS011;10663;42.714;23.274;2023-09-19T21:42:42;13.68;;;10.35;;
21010;SDS011;10663;42.714;23.274;2023-09-19T21:44:14;14.98;;;10.05;;
21010;SDS011;10663;42.714;23.274;2023-09-19T21:45:45;12.60;;;9.57;;
21010;SDS011;10663;42.714;23.274;2023-09-19T21:47:16;13.73;;;10.05;;
21010;SDS011;10663;42.714;23.274;2023-09-19T21:48:47;13.03;;;9.90;;
21010;SDS011;10663;42.714;23.274;2023-09-19T21:50:22;14.68;;;9.65;;
21010;SDS011;10663;42.714;23.274;2023-09-19T21:51:55;13.10;;;9.32;;
21010;SDS011;10663;42.714;23.274;2023-09-19T21:53:26;13.40;;;9.00;;
21010;SDS011;10663;42.714;23.274;2023-09-19T21:54:57;11.10;;;8.40;;
21010;SDS011;10663;42.714;23.274;2023-09-19T21:56:29;12.63;;;9.20;;
21010;SDS011;10663;42.714;23.274;2023-09-19T21:58:00;11.20;;;8.43;;
21010;SDS011;10663;42.714;23.274;2023-09-19T21:59:31;10.67;;;8.97;;
21010;SDS011;10663;42.714;23.274;2023-09-19T22:01:02;12.23;;;8.73;;
21010;SDS011;10663;42.714;23.274;2023-09-19T22:02:36;10.05;;;7.90;;
21010;SDS011;10663;42.714;23.274;2023-09-19T22:04:08;10.85;;;8.32;;
21010;SDS011;10663;42.714;23.274;2023-09-19T22:05:42;10.83;;;8.07;;
21010;SDS011;10663;42.714;23.274;2023-09-19T22:07:14;11.47;;;8.27;;
21010;SDS011;10663;42.714;23.274;2023-09-19T22:08:45;12.18;;;8.32;;
21010;SDS011;10663;42.714;23.274;2023-09-19T22:10:20;11.25;;;8.02;;
21010;SDS011;10663;42.714;23.274;2023-09-19T22:11:51;10.50;;;7.90;;
21010;SDS011;10663;42.714;23.274;2023-09-19T22:13:24;10.80;;;7.88;;
21010;SDS011;10663;42.714;23.274;2023-09-19T22:14:54;10.60;;;8.25;;
21010;SDS011;10663;42.714;23.274;2023-09-19T22:16:25;10.60;;;8.50;;
21010;SDS011;10663;42.714;23.274;2023-09-19T22:17:58;10.70;;;8.45;;
21010;SDS011;10663;42.714;23.274;2023-09-19T22:19:30;13.23;;;8.40;;
21010;SDS011;10663;42.714;23.274;2023-09-19T22:21:01;10.20;;;8.45;;
21010;SDS011;10663;42.714;23.274;2023-09-19T22:22:47;10.77;;;8.63;;
21010;SDS011;10663;42.714;23.274;2023-09-19T22:24:18;10.10;;;7.95;;
21010;SDS011;10663;42.714;23.274;2023-09-19T22:25:53;13.10;;;7.80;;
21010;SDS011;10663;42.714;23.274;2023-09-19T22:27:24;10.53;;;8.10;;
21010;SDS011;10663;42.714;23.274;2023-09-19T22:28:56;10.70;;;8.52;;
21010;SDS011;10663;42.714;23.274;2023-09-19T22:30:31;9.85;;;7.63;;
21010;SDS011;10663;42.714;23.274;2023-09-19T22:32:04;8.75;;;7.70;;
21010;SDS011;10663;42.714;23.274;2023-09-19T22:33:39;8.55;;;7.60;;
21010;SDS011;10663;42.714;23.274;2023-09-19T22:35:10;9.20;;;7.57;;
21010;SDS011;10663;42.714;23.274;2023-09-19T22:36:41;9.20;;;7.47;;
21010;SDS011;10663;42.714;23.274;2023-09-19T22:38:18;9.27;;;7.10;;
21010;SDS011;10663;42.714;23.274;2023-09-19T22:39:49;10.35;;;7.03;;
21010;SDS011;10663;42.714;23.274;2023-09-19T22:41:21;8.93;;;7.15;;
21010;SDS011;10663;42.714;23.274;2023-09-19T22:42:53;10.25;;;7.68;;
21010;SDS011;10663;42.714;23.274;2023-09-19T22:44:23;9.48;;;7.10;;
21010;SDS011;10663;42.714;23.274;2023-09-19T22:45:56;7.85;;;7.05;;
21010;SDS011;10663;42.714;23.274;2023-09-19T22:47:27;9.02;;;6.80;;
21010;SDS011;10663;42.714;23.274;2023-09-19T22:48:59;8.35;;;6.80;;
21010;SDS011;10663;42.714;23.274;2023-09-19T22:50:33;9.93;;;6.90;;
21010;SDS011;10663;42.714;23.274;2023-09-19T22:52:07;7.40;;;6.63;;
21010;SDS011;10663;42.714;23.274;2023-09-19T22:53:40;8.82;;;6.63;;
21010;SDS011;10663;42.714;23.274;2023-09-19T22:55:15;9.18;;;6.82;;
21010;SDS011;10663;42.714;23.274;2023-09-19T22:56:54;7.70;;;6.82;;
21010;SDS011;10663;42.714;23.274;2023-09-19T22:58:26;8.70;;;6.37;;
21010;SDS011;10663;42.714;23.274;2023-09-19T22:59:59;7.43;;;6.68;;
21010;SDS011;10663;42.714;23.274;2023-09-19T23:01:30;7.95;;;6.15;;
21010;SDS011;10663;42.714;23.274;2023-09-19T23:03:06;6.70;;;5.75;;
21010;SDS011;10663;42.714;23.274;2023-09-19T23:04:41;6.87;;;6.03;;
21010;SDS011;10663;42.714;23.274;2023-09-19T23:06:13;8.20;;;6.70;;
21010;SDS011;10663;42.714;23.274;2023-09-19T23:07:53;9.10;;;6.45;;
21010;SDS011;10663;42.714;23.274;2023-09-19T23:09:28;6.93;;;6.13;;
21010;SDS011;10663;42.714;23.274;2023-09-19T23:11:01;8.13;;;6.15;;
21010;SDS011;10663;42.714;23.274;2023-09-19T23:12:33;7.57;;;6.40;;
21010;SDS011;10663;42.714;23.274;2023-09-19T23:14:04;6.47;;;5.88;;
21010;SDS011;10663;42.714;23.274;2023-09-19T23:15:38;9.20;;;6.10;;
21010;SDS011;10663;42.714;23.274;2023-09-19T23:17:09;6.60;;;5.90;;
21010;SDS011;10663;42.714;23.274;2023-09-19T23:18:45;7.75;;;6.00;;
21010;SDS011;10663;42.714;23.274;2023-09-19T23:20:15;7.85;;;6.20;;
21010;SDS011;10663;42.714;23.274;2023-09-19T23:21:48;7.13;;;6.15;;
21010;SDS011;10663;42.714;23.274;2023-09-19T23:23:22;7.28;;;6.03;;
21010;SDS011;10663;42.714;23.274;2023-09-19T23:24:53;7.30;;;6.10;;
21010;SDS011;10663;42.714;23.274;2023-09-19T23:26:43;7.75;;;6.85;;
21010;SDS011;10663;42.714;23.274;2023-09-19T23:28:16;10.02;;;7.40;;
21010;SDS011;10663;42.714;23.274;2023-09-19T23:29:47;9.00;;;7.10;;
21010;SDS011;10663;42.714;23.274;2023-09-19T23:31:19;7.88;;;6.60;;
21010;SDS011;10663;42.714;23.274;2023-09-19T23:32:51;7.77;;;6.53;;
21010;SDS011;10663;42.714;23.274;2023-09-19T23:34:21;8.65;;;6.82;;
21010;SDS011;10663;42.714;23.274;2023-09-19T23:35:52;8.88;;;6.75;;
21010;SDS011;10663;42.714;23.274;2023-09-19T23:37:23;7.72;;;6.55;;
21010;SDS011;10663;42.714;23.274;2023-09-19T23:38:54;9.15;;;7.13;;
21010;SDS011;10663;42.714;23.274;2023-09-19T23:40:28;10.35;;;7.90;;
21010;SDS011;10663;42.714;23.274;2023-09-19T23:42:01;10.82;;;7.80;;
21010;SDS011;10663;42.714;23.274;2023-09-19T23:43:31;11.53;;;7.40;;
21010;SDS011;10663;42.714;23.274;2023-09-19T23:45:02;8.40;;;7.07;;
21010;SDS011;10663;42.714;23.274;2023-09-19T23:46:34;9.30;;;8.20;;
21010;SDS011;10663;42.714;23.274;2023-09-19T23:48:08;10.00;;;8.05;;
21010;SDS011;10663;42.714;23.274;2023-09-19T23:49:39;9.70;;;8.63;;
21010;SDS011;10663;42.714;23.274;2023-09-19T23:51:10;11.80;;;8.30;;
21010;SDS011;10663;42.714;23.274;2023-09-19T23:52:41;10.35;;;8.82;;
21010;SDS011;10663;42.714;23.274;2023-09-19T23:54:12;11.98;;;9.00;;
21010;SDS011;10663;42.714;23.274;2023-09-19T23:55:54;10.45;;;8.63;;
21010;SDS011;10663;42.714;23.274;2023-09-19T23:57:25;12.95;;;9.23;;
21010;SDS011;10663;42.714;23.274;2023-09-19T23:58:57;10.45;;;9.10;;
